KLGC/LGC METAR and TAF weather

Enter ICAO airport designator
Station Type Date Time Source
KLGC METAR 2022/01/29 10:55 UTC NOAA

KLGC 291055Z AUTO 35011G20KT 10SM SCT038 M02/M11 A3017 RMK AO2 T10211111


Station Type Date Time Source
KLGC Decoded METAR 2022/01/29 10:55 UTC NOAA

La Grange, Callaway Airport, GA, United States (KLGC) 33-00-32N 085-04-21W
Jan 29, 2022 - 05:55 AM EST / 2022.01.29 1055 UTC
Wind: from the N (350 degrees) at 13 MPH (11 KT) gusting to 23 MPH (20 KT):0
Visibility: 10 mile(s):0
Sky conditions: partly cloudy
Temperature: 28.2 F (-2.1 C)
Windchill: 17 F (-8 C):1
Dew Point: 12.0 F (-11.1 C)
Relative Humidity: 50%
Pressure (altimeter): 30.17 in. Hg (1021 hPa)
ob: KLGC 291055Z AUTO 35011G20KT 10SM SCT038 M02/M11 A3017 RMK AO2 T10211111
cycle: 11

Station Type Date Time Source
KLGC TAF UTC NOAA

Error!

Example: see airport list